createdAt,value
2023-01-09T00:00:24.696Z,9.15
2023-01-09T00:00:57.190Z,8.95
2023-01-09T00:01:32.542Z,9.00
2023-01-09T00:02:04.725Z,8.82
2023-01-09T00:02:40.621Z,8.27
2023-01-09T00:03:12.512Z,9.30
2023-01-09T00:03:44.448Z,9.18
2023-01-09T00:04:16.727Z,8.68
2023-01-09T00:04:48.650Z,8.65
2023-01-09T00:05:21.209Z,8.55
2023-01-09T00:05:53.309Z,8.95
2023-01-09T00:06:25.486Z,8.82
2023-01-09T00:06:57.380Z,8.93
2023-01-09T00:07:29.184Z,8.68
2023-01-09T00:08:01.058Z,8.70
2023-01-09T00:08:32.935Z,8.57
2023-01-09T00:09:04.797Z,8.77
2023-01-09T00:09:36.596Z,8.90
2023-01-09T00:10:09.529Z,9.05
2023-01-09T00:10:41.350Z,8.85
2023-01-09T00:11:13.178Z,8.95
2023-01-09T00:11:45.702Z,8.85
2023-01-09T00:12:17.614Z,8.27
2023-01-09T00:12:49.684Z,9.00
2023-01-09T00:13:21.619Z,8.27
2023-01-09T00:13:53.711Z,8.38
2023-01-09T00:14:25.674Z,8.38
2023-01-09T00:14:57.537Z,8.35
2023-01-09T00:15:29.503Z,8.70
2023-01-09T00:16:01.343Z,8.15
2023-01-09T00:16:33.232Z,8.23
2023-01-09T00:17:05.490Z,8.02
2023-01-09T00:17:37.769Z,8.10
2023-01-09T00:18:09.741Z,9.27
2023-01-09T00:18:41.608Z,9.02
2023-01-09T00:19:13.514Z,9.02
2023-01-09T00:19:45.635Z,8.77
2023-01-09T00:20:17.835Z,8.40
2023-01-09T00:20:49.698Z,9.50
2023-01-09T00:21:21.690Z,8.30
2023-01-09T00:21:53.571Z,8.13
2023-01-09T00:22:25.740Z,8.75
2023-01-09T00:22:57.584Z,8.90
2023-01-09T00:23:29.469Z,8.55
2023-01-09T00:24:01.387Z,8.85
2023-01-09T00:24:33.219Z,8.40
2023-01-09T00:25:05.865Z,8.57
2023-01-09T00:25:38.139Z,8.70
2023-01-09T00:26:13.199Z,8.70
2023-01-09T00:26:45.059Z,8.93
2023-01-09T00:27:17.285Z,9.13
2023-01-09T00:27:49.549Z,8.35
2023-01-09T00:28:21.449Z,7.90
2023-01-09T00:28:54.189Z,8.10
2023-01-09T00:29:26.023Z,8.50
2023-01-09T00:29:58.135Z,8.75
2023-01-09T00:30:30.098Z,8.48
2023-01-09T00:31:03.720Z,9.10
2023-01-09T00:31:35.614Z,8.50
2023-01-09T00:32:10.158Z,8.70
2023-01-09T00:32:42.029Z,8.52
2023-01-09T00:33:14.245Z,8.45
2023-01-09T00:33:58.327Z,8.38
2023-01-09T00:34:30.335Z,8.10
2023-01-09T00:35:02.491Z,8.27
2023-01-09T00:35:34.386Z,8.35
2023-01-09T00:36:06.832Z,8.32
2023-01-09T00:36:38.764Z,8.30
2023-01-09T00:37:13.540Z,8.88
2023-01-09T00:37:45.422Z,8.15
2023-01-09T00:38:17.515Z,8.82
2023-01-09T00:38:50.347Z,8.07
2023-01-09T00:39:23.295Z,8.75
2023-01-09T00:39:55.121Z,7.62
2023-01-09T00:40:27.024Z,7.97
2023-01-09T00:41:00.390Z,7.90
2023-01-09T00:41:47.433Z,7.68
2023-01-09T00:42:22.540Z,7.25
2023-01-09T00:42:56.570Z,8.07
2023-01-09T00:43:32.502Z,8.38
2023-01-09T00:44:15.764Z,8.52
2023-01-09T00:44:55.082Z,8.30
2023-01-09T00:45:29.579Z,8.00
2023-01-09T00:46:05.344Z,9.15
2023-01-09T00:46:42.986Z,7.72
2023-01-09T00:47:27.958Z,7.90
2023-01-09T00:48:05.214Z,9.00
2023-01-09T00:48:41.128Z,8.32
2023-01-09T00:49:15.154Z,8.20
2023-01-09T00:49:47.960Z,7.70
2023-01-09T00:50:24.702Z,8.15
2023-01-09T00:50:59.479Z,7.75
2023-01-09T00:51:31.460Z,8.50
2023-01-09T00:52:06.731Z,8.02
2023-01-09T00:52:40.490Z,7.72
2023-01-09T00:53:19.170Z,8.32
2023-01-09T00:53:52.649Z,7.85
2023-01-09T00:54:24.691Z,8.93
2023-01-09T00:54:58.882Z,10.55
2023-01-09T00:55:31.090Z,10.15
2023-01-09T00:56:08.671Z,9.30
2023-01-09T00:56:40.530Z,7.87
2023-01-09T00:57:13.827Z,7.85
2023-01-09T00:57:45.857Z,7.82
2023-01-09T00:58:18.493Z,7.65
2023-01-09T00:58:52.020Z,7.87
2023-01-09T00:59:24.510Z,8.02
2023-01-09T00:59:58.049Z,8.07
2023-01-09T01:00:30.178Z,7.78
2023-01-09T01:01:02.377Z,7.65
2023-01-09T01:01:34.365Z,7.47
2023-01-09T01:02:06.542Z,8.13
2023-01-09T01:02:38.628Z,8.18
2023-01-09T01:03:11.054Z,7.45
2023-01-09T01:03:42.888Z,7.90
2023-01-09T01:04:33.233Z,8.23
2023-01-09T01:05:24.643Z,8.00
2023-01-09T01:06:15.510Z,7.70
2023-01-09T01:07:05.758Z,6.97
2023-01-09T01:07:41.083Z,7.23
2023-01-09T01:08:15.340Z,7.05
2023-01-09T01:08:47.177Z,7.22
2023-01-09T01:09:19.020Z,7.00
2023-01-09T01:09:50.860Z,7.18
2023-01-09T01:10:25.440Z,7.62
2023-01-09T01:10:57.300Z,7.70
2023-01-09T01:11:29.383Z,7.53
2023-01-09T01:12:01.991Z,7.28
2023-01-09T01:12:33.846Z,6.97
2023-01-09T01:13:05.678Z,7.57
2023-01-09T01:13:38.299Z,7.07
2023-01-09T01:14:10.139Z,6.75
2023-01-09T01:14:42.079Z,7.35
2023-01-09T01:15:14.480Z,6.72
2023-01-09T01:15:47.082Z,7.00
2023-01-09T01:16:19.053Z,6.55
2023-01-09T01:16:50.978Z,8.00
2023-01-09T01:17:22.979Z,7.35
2023-01-09T01:17:55.480Z,7.22
2023-01-09T01:18:27.312Z,7.18
2023-01-09T01:18:59.196Z,6.90
2023-01-09T01:19:31.316Z,7.05
2023-01-09T01:20:08.486Z,7.22
2023-01-09T01:20:45.064Z,6.85
2023-01-09T01:21:17.268Z,7.07
2023-01-09T01:21:49.219Z,7.37
2023-01-09T01:22:22.169Z,6.97
2023-01-09T01:22:53.995Z,6.68
2023-01-09T01:23:26.245Z,6.43
2023-01-09T01:23:58.092Z,7.05
2023-01-09T01:24:30.402Z,7.18
2023-01-09T01:25:02.867Z,6.40
2023-01-09T01:25:38.350Z,7.05
2023-01-09T01:26:16.525Z,7.20
2023-01-09T01:26:48.706Z,7.37
2023-01-09T01:27:20.637Z,7.22
2023-01-09T01:27:52.501Z,8.15
2023-01-09T01:28:24.349Z,7.32
2023-01-09T01:28:56.229Z,6.78
2023-01-09T01:29:28.419Z,7.47
2023-01-09T01:30:00.351Z,7.32
2023-01-09T01:30:33.249Z,6.62
2023-01-09T01:31:05.839Z,7.30
2023-01-09T01:31:37.732Z,6.55
2023-01-09T01:32:09.930Z,7.15
2023-01-09T01:32:41.996Z,8.02
2023-01-09T01:33:13.824Z,6.45
2023-01-09T01:33:45.939Z,7.22
2023-01-09T01:34:17.779Z,6.78
2023-01-09T01:34:49.632Z,6.53
2023-01-09T01:35:22.562Z,7.22
2023-01-09T01:36:06.027Z,6.85
2023-01-09T01:36:37.858Z,6.65
2023-01-09T01:37:10.037Z,6.40
2023-01-09T01:37:41.999Z,6.87
2023-01-09T01:38:13.818Z,6.70
2023-01-09T01:38:46.978Z,6.70
2023-01-09T01:39:19.049Z,6.85
2023-01-09T01:39:52.004Z,6.72
2023-01-09T01:40:23.823Z,7.20
2023-01-09T01:40:56.817Z,7.28
2023-01-09T01:41:31.329Z,7.47
2023-01-09T01:42:04.714Z,6.97
2023-01-09T01:42:36.887Z,7.18
2023-01-09T01:43:12.151Z,6.70
2023-01-09T01:44:05.470Z,6.62
2023-01-09T01:44:56.048Z,6.53
2023-01-09T01:45:29.968Z,7.18
2023-01-09T01:46:01.914Z,6.85
2023-01-09T01:46:34.707Z,6.72
2023-01-09T01:47:06.618Z,7.10
2023-01-09T01:47:47.596Z,7.37
2023-01-09T01:48:30.672Z,5.93
2023-01-09T01:49:15.735Z,7.60
2023-01-09T01:49:47.897Z,7.03
2023-01-09T01:50:35.345Z,7.30
2023-01-09T01:51:09.988Z,6.45
2023-01-09T01:51:47.362Z,6.28
2023-01-09T01:52:20.370Z,7.45
2023-01-09T01:53:05.487Z,7.28
2023-01-09T01:53:46.238Z,7.80
2023-01-09T01:54:53.349Z,6.10
2023-01-09T01:55:25.496Z,6.62
2023-01-09T01:56:13.965Z,6.93
2023-01-09T01:56:50.259Z,6.40
2023-01-09T01:57:22.164Z,7.40
2023-01-09T01:57:59.714Z,7.68
2023-01-09T01:58:33.017Z,6.30
2023-01-09T01:59:11.558Z,7.15
2023-01-09T01:59:50.367Z,7.10
2023-01-09T02:00:27.859Z,7.30
2023-01-09T02:01:00.137Z,6.40
2023-01-09T02:01:33.905Z,6.68
2023-01-09T02:02:06.633Z,6.53
2023-01-09T02:02:38.686Z,6.85
2023-01-09T02:03:15.003Z,6.65
2023-01-09T02:03:47.424Z,7.35
2023-01-09T02:04:19.618Z,6.72
2023-01-09T02:04:55.503Z,7.10
2023-01-09T02:05:27.683Z,6.35
2023-01-09T02:05:59.774Z,6.72
2023-01-09T02:06:35.121Z,6.78
2023-01-09T02:07:09.854Z,7.32
2023-01-09T02:07:41.741Z,6.55
2023-01-09T02:08:14.120Z,7.40
2023-01-09T02:08:47.184Z,6.55
2023-01-09T02:09:22.788Z,6.78
2023-01-09T02:09:55.466Z,6.40
2023-01-09T02:10:27.956Z,6.55
2023-01-09T02:11:00.296Z,6.82
2023-01-09T02:11:32.879Z,6.82
2023-01-09T02:12:26.496Z,6.95
2023-01-09T02:12:59.475Z,6.32
2023-01-09T02:13:34.316Z,6.65
2023-01-09T02:14:06.218Z,6.55
2023-01-09T02:14:38.075Z,6.43
2023-01-09T02:15:13.724Z,7.05
2023-01-09T02:15:48.291Z,5.95
2023-01-09T02:16:38.068Z,7.18
2023-01-09T02:17:27.718Z,6.68
2023-01-09T02:18:17.671Z,6.50
2023-01-09T02:18:55.853Z,6.72
2023-01-09T02:19:54.219Z,6.32
2023-01-09T02:20:34.920Z,6.43
2023-01-09T02:21:41.229Z,6.10
2023-01-09T02:22:19.068Z,7.00
2023-01-09T02:23:15.662Z,5.80
2023-01-09T02:24:08.928Z,6.70
2023-01-09T02:24:56.252Z,6.53
2023-01-09T02:26:02.043Z,6.93
2023-01-09T02:27:02.372Z,6.75
2023-01-09T02:27:47.991Z,6.55
2023-01-09T02:28:35.013Z,6.45
2023-01-09T02:29:39.094Z,6.70
2023-01-09T02:30:16.795Z,7.18
2023-01-09T02:31:06.816Z,6.95
2023-01-09T02:32:00.712Z,6.35
2023-01-09T02:32:42.018Z,6.70
2023-01-09T02:33:26.684Z,6.35
2023-01-09T02:34:19.877Z,6.80
2023-01-09T02:35:06.831Z,6.70
2023-01-09T02:36:08.365Z,7.35
2023-01-09T02:36:55.341Z,7.05
2023-01-09T02:37:50.096Z,6.87
2023-01-09T02:38:54.978Z,6.12
2023-01-09T02:39:26.793Z,7.32
2023-01-09T02:40:16.703Z,6.78
2023-01-09T02:41:20.532Z,6.72
2023-01-09T02:42:07.811Z,6.90
2023-01-09T02:42:42.036Z,6.45
2023-01-09T02:43:14.745Z,7.75
2023-01-09T02:43:46.581Z,6.82
2023-01-09T02:44:22.551Z,6.00
2023-01-09T02:44:54.461Z,7.75
2023-01-09T02:45:26.522Z,7.43
2023-01-09T02:45:58.790Z,7.47
2023-01-09T02:46:30.619Z,7.32
2023-01-09T02:47:08.773Z,6.87
2023-01-09T02:47:45.681Z,7.62
2023-01-09T02:48:17.554Z,7.22
2023-01-09T02:48:54.169Z,7.35
2023-01-09T02:49:26.152Z,7.12
2023-01-09T02:50:02.461Z,7.55
2023-01-09T02:50:52.523Z,6.90
2023-01-09T02:51:40.633Z,7.18
2023-01-09T02:52:21.224Z,7.62
2023-01-09T02:53:14.983Z,7.87
2023-01-09T02:54:05.742Z,7.20
2023-01-09T02:54:56.846Z,7.03
2023-01-09T02:55:51.575Z,6.97
2023-01-09T02:56:52.125Z,7.50
2023-01-09T02:57:46.122Z,7.75
2023-01-09T02:58:50.428Z,8.35
2023-01-09T02:59:42.256Z,7.55
2023-01-09T03:00:29.015Z,6.85
2023-01-09T03:01:17.822Z,7.15
2023-01-09T03:01:56.186Z,6.37
2023-01-09T03:02:47.367Z,7.43
2023-01-09T03:04:01.011Z,7.28
2023-01-09T03:04:47.081Z,7.50
2023-01-09T03:05:38.390Z,7.43
2023-01-09T03:06:30.413Z,6.97
2023-01-09T03:07:12.157Z,7.43
2023-01-09T03:08:02.068Z,7.37
2023-01-09T03:08:42.126Z,8.18
2023-01-09T03:09:20.195Z,7.65
2023-01-09T03:10:02.977Z,7.35
2023-01-09T03:10:40.693Z,8.23
2023-01-09T03:11:12.743Z,7.53
2023-01-09T03:11:52.573Z,7.50
2023-01-09T03:12:29.662Z,7.80
2023-01-09T03:13:03.183Z,8.23
2023-01-09T03:13:54.621Z,7.62
2023-01-09T03:14:28.038Z,8.00
2023-01-09T03:15:02.580Z,8.30
2023-01-09T03:15:37.626Z,8.00
2023-01-09T03:16:15.692Z,7.65
2023-01-09T03:16:53.024Z,7.93
2023-01-09T03:17:46.057Z,7.37
2023-01-09T03:18:22.116Z,8.02
2023-01-09T03:18:56.079Z,7.15
2023-01-09T03:19:33.952Z,7.57
2023-01-09T03:20:10.475Z,7.82
2023-01-09T03:20:43.818Z,7.28
2023-01-09T03:21:17.100Z,7.03
2023-01-09T03:21:49.885Z,7.72
2023-01-09T03:22:21.805Z,6.95
2023-01-09T03:22:56.062Z,8.25
2023-01-09T03:23:28.294Z,7.40
2023-01-09T03:24:02.177Z,8.05
2023-01-09T03:24:34.010Z,7.55
2023-01-09T03:25:06.387Z,7.68
2023-01-09T03:25:38.441Z,7.57
2023-01-09T03:26:11.368Z,7.37
2023-01-09T03:26:43.821Z,8.02
2023-01-09T03:27:15.788Z,8.13
2023-01-09T03:27:47.965Z,8.00
2023-01-09T03:28:28.465Z,7.97
2023-01-09T03:29:32.677Z,7.05
2023-01-09T03:30:05.239Z,8.00
2023-01-09T03:30:37.601Z,7.85
2023-01-09T03:31:09.635Z,8.25
2023-01-09T03:31:41.548Z,7.40
2023-01-09T03:32:13.578Z,8.45
2023-01-09T03:32:45.409Z,8.15
2023-01-09T03:33:17.254Z,7.65
2023-01-09T03:33:49.151Z,7.85
2023-01-09T03:34:21.334Z,7.80
2023-01-09T03:34:53.190Z,8.60
2023-01-09T03:35:25.953Z,8.02
2023-01-09T03:35:57.831Z,7.22
2023-01-09T03:36:29.727Z,7.85
2023-01-09T03:37:01.812Z,8.60
2023-01-09T03:37:33.657Z,8.25
2023-01-09T03:38:07.303Z,7.93
2023-01-09T03:38:39.963Z,8.23
2023-01-09T03:39:12.977Z,8.00
2023-01-09T03:39:47.588Z,8.38
2023-01-09T03:40:20.067Z,8.15
2023-01-09T03:40:51.928Z,8.18
2023-01-09T03:41:23.891Z,8.35
2023-01-09T03:41:55.706Z,8.13
2023-01-09T03:42:27.528Z,8.02
2023-01-09T03:42:59.396Z,8.40
2023-01-09T03:43:31.322Z,7.85
2023-01-09T03:44:03.195Z,8.48
2023-01-09T03:44:35.053Z,7.07
2023-01-09T03:45:07.676Z,8.68
2023-01-09T03:45:39.616Z,8.40
2023-01-09T03:46:11.732Z,7.37
2023-01-09T03:46:43.632Z,7.70
2023-01-09T03:47:15.653Z,7.80
2023-01-09T03:47:48.048Z,7.50
2023-01-09T03:48:19.999Z,7.43
2023-01-09T03:48:51.849Z,7.60
2023-01-09T03:49:24.153Z,7.43
2023-01-09T03:49:56.657Z,7.75
2023-01-09T03:50:28.831Z,8.27
2023-01-09T03:51:00.704Z,7.53
2023-01-09T03:51:32.545Z,7.82
2023-01-09T03:52:04.656Z,8.52
2023-01-09T03:52:36.506Z,8.02
2023-01-09T03:53:08.500Z,7.68
2023-01-09T03:53:41.643Z,10.52
2023-01-09T03:54:13.492Z,10.85
2023-01-09T03:54:45.357Z,18.25
2023-01-09T03:55:17.213Z,17.85
2023-01-09T03:55:51.698Z,15.15
2023-01-09T03:56:23.589Z,12.20
2023-01-09T03:56:55.434Z,14.27
2023-01-09T03:57:27.299Z,13.55
2023-01-09T03:57:59.167Z,15.25
2023-01-09T03:58:31.330Z,14.38
2023-01-09T03:59:03.262Z,14.70
2023-01-09T03:59:35.102Z,13.35
2023-01-09T04:00:08.571Z,11.27
2023-01-09T04:00:46.075Z,10.82
2023-01-09T04:01:18.557Z,11.88
2023-01-09T04:01:50.512Z,15.00
2023-01-09T04:02:22.531Z,14.52
2023-01-09T04:02:54.361Z,17.23
2023-01-09T04:03:26.431Z,13.90
2023-01-09T04:03:58.350Z,12.35
2023-01-09T04:04:30.265Z,12.80
2023-01-09T04:05:02.097Z,11.35
2023-01-09T04:05:34.646Z,11.48
2023-01-09T04:06:06.795Z,12.37
2023-01-09T04:06:38.939Z,11.52
2023-01-09T04:07:11.126Z,12.02
2023-01-09T04:07:42.998Z,12.32
2023-01-09T04:08:14.912Z,12.45
2023-01-09T04:08:46.822Z,10.65
2023-01-09T04:09:18.697Z,10.25
2023-01-09T04:09:50.616Z,9.85
2023-01-09T04:10:22.488Z,12.48
2023-01-09T04:10:54.338Z,11.27
2023-01-09T04:11:26.212Z,10.70
2023-01-09T04:11:58.351Z,12.43
2023-01-09T04:12:30.212Z,13.60
2023-01-09T04:13:02.146Z,10.90
2023-01-09T04:13:33.987Z,8.85
2023-01-09T04:14:05.845Z,13.23
2023-01-09T04:14:37.674Z,19.65
2023-01-09T04:15:09.877Z,20.33
2023-01-09T04:15:41.762Z,16.48
2023-01-09T04:16:13.795Z,13.62
2023-01-09T04:16:45.723Z,11.70
2023-01-09T04:17:18.018Z,11.12
2023-01-09T04:17:49.889Z,19.08
2023-01-09T04:18:21.808Z,16.73
2023-01-09T04:18:53.673Z,15.88
2023-01-09T04:19:25.523Z,13.70
2023-01-09T04:19:59.113Z,8.82
2023-01-09T04:20:31.472Z,29.85
2023-01-09T04:21:03.349Z,17.27
2023-01-09T04:21:35.226Z,14.27
2023-01-09T04:22:07.100Z,10.90
2023-01-09T04:22:39.262Z,10.20
2023-01-09T04:23:11.117Z,10.30
2023-01-09T04:23:42.965Z,8.60
2023-01-09T04:24:14.818Z,8.10
2023-01-09T04:24:46.640Z,8.63
2023-01-09T04:25:18.454Z,7.80
2023-01-09T04:25:50.271Z,9.63
2023-01-09T04:26:22.113Z,9.63
2023-01-09T04:26:53.998Z,9.60
2023-01-09T04:27:25.894Z,11.80
2023-01-09T04:27:58.087Z,15.77
2023-01-09T04:28:29.952Z,16.48
2023-01-09T04:29:01.979Z,17.55
2023-01-09T04:29:33.849Z,15.48
2023-01-09T04:30:06.320Z,12.90
2023-01-09T04:30:38.161Z,12.27
2023-01-09T04:31:10.278Z,11.27
2023-01-09T04:31:42.169Z,9.70
2023-01-09T04:32:14.131Z,8.93
2023-01-09T04:32:46.032Z,9.50
2023-01-09T04:33:18.173Z,13.32
2023-01-09T04:33:50.089Z,13.55
2023-01-09T04:34:25.837Z,17.45
2023-01-09T04:34:57.821Z,16.10
2023-01-09T04:35:29.661Z,14.07
2023-01-09T04:36:01.650Z,10.93
2023-01-09T04:36:36.054Z,11.95
2023-01-09T04:37:07.957Z,24.15
2023-01-09T04:37:39.810Z,17.10
2023-01-09T04:38:11.814Z,17.20
2023-01-09T04:38:43.997Z,18.12
2023-01-09T04:39:15.867Z,24.75
2023-01-09T04:39:48.170Z,20.45
2023-01-09T04:40:20.363Z,23.50
2023-01-09T04:40:52.223Z,22.70
2023-01-09T04:41:42.521Z,23.23
2023-01-09T04:42:14.404Z,17.50
2023-01-09T04:42:46.491Z,27.85
2023-01-09T04:43:18.374Z,23.42
2023-01-09T04:43:50.505Z,19.48
2023-01-09T04:44:26.883Z,16.30
2023-01-09T04:44:58.706Z,15.23
2023-01-09T04:45:30.626Z,14.68
2023-01-09T04:46:03.447Z,19.30
2023-01-09T04:46:35.459Z,19.73
2023-01-09T04:47:07.414Z,17.23
2023-01-09T04:47:39.386Z,14.10
2023-01-09T04:48:11.361Z,12.63
2023-01-09T04:48:43.342Z,11.77
2023-01-09T04:49:16.179Z,10.93
2023-01-09T04:49:48.191Z,10.25
2023-01-09T04:50:20.180Z,11.05
2023-01-09T04:50:52.161Z,10.00
2023-01-09T04:51:24.162Z,11.27
2023-01-09T04:51:57.002Z,10.98
2023-01-09T04:52:29.174Z,10.00
2023-01-09T04:53:01.139Z,11.15
2023-01-09T04:53:34.951Z,10.65
2023-01-09T04:54:07.240Z,10.80
2023-01-09T04:54:39.652Z,11.43
2023-01-09T04:55:20.670Z,11.93
2023-01-09T04:55:52.667Z,11.75
2023-01-09T04:56:24.612Z,13.05
2023-01-09T04:56:56.718Z,12.70
2023-01-09T04:57:28.672Z,12.02
2023-01-09T04:58:00.608Z,13.62
2023-01-09T04:58:32.539Z,12.68
2023-01-09T04:59:11.534Z,11.12
2023-01-09T04:59:43.885Z,10.70
2023-01-09T05:00:18.503Z,9.73
2023-01-09T05:00:51.946Z,11.40
2023-01-09T05:01:24.146Z,12.68
2023-01-09T05:01:58.396Z,14.98
2023-01-09T05:02:30.419Z,13.55
2023-01-09T05:03:03.003Z,11.68
2023-01-09T05:03:34.923Z,11.45
2023-01-09T05:04:07.644Z,10.98
2023-01-09T05:04:47.325Z,11.48
2023-01-09T05:05:19.795Z,10.93
2023-01-09T05:05:51.902Z,11.23
2023-01-09T05:06:24.152Z,11.65
2023-01-09T05:06:56.170Z,10.52
2023-01-09T05:07:28.141Z,11.80
2023-01-09T05:08:00.118Z,11.20
2023-01-09T05:08:32.256Z,10.30
2023-01-09T05:09:04.367Z,11.85
2023-01-09T05:09:36.348Z,12.55
2023-01-09T05:10:09.449Z,12.02
2023-01-09T05:10:41.746Z,13.73
2023-01-09T05:11:13.698Z,13.10
2023-01-09T05:11:45.627Z,12.68
2023-01-09T05:12:17.616Z,13.57
2023-01-09T05:12:49.549Z,12.13
2023-01-09T05:13:21.498Z,12.50
2023-01-09T05:13:54.222Z,13.75
2023-01-09T05:14:26.208Z,13.38
2023-01-09T05:14:58.133Z,13.13
2023-01-09T05:15:31.050Z,15.02
2023-01-09T05:16:03.191Z,13.77
2023-01-09T05:16:35.188Z,14.98
2023-01-09T05:17:07.051Z,12.05
2023-01-09T05:17:38.961Z,12.25
2023-01-09T05:18:10.869Z,11.95
2023-01-09T05:18:42.820Z,12.32
2023-01-09T05:19:15.075Z,11.35
2023-01-09T05:19:47.030Z,11.65
2023-01-09T05:20:19.035Z,11.73
2023-01-09T05:20:51.003Z,12.60
2023-01-09T05:21:24.595Z,12.88
2023-01-09T05:21:56.539Z,12.45
2023-01-09T05:22:28.915Z,11.85
2023-01-09T05:23:00.948Z,11.23
2023-01-09T05:23:32.902Z,13.00
2023-01-09T05:24:05.081Z,11.60
2023-01-09T05:24:37.031Z,12.82
2023-01-09T05:25:09.230Z,12.93
2023-01-09T05:25:41.177Z,11.85
2023-01-09T05:26:13.505Z,12.07
2023-01-09T05:26:45.687Z,12.73
2023-01-09T05:27:17.620Z,13.00
2023-01-09T05:27:49.543Z,12.60
2023-01-09T05:28:21.495Z,12.20
2023-01-09T05:28:56.382Z,19.77
2023-01-09T05:29:28.589Z,15.20
2023-01-09T05:30:00.548Z,13.07
2023-01-09T05:30:32.550Z,12.37
2023-01-09T05:31:04.536Z,12.35
2023-01-09T05:31:36.522Z,11.07
2023-01-09T05:32:08.791Z,11.85
2023-01-09T05:32:40.725Z,15.02
2023-01-09T05:33:12.773Z,14.93
2023-01-09T05:33:44.799Z,19.25
2023-01-09T05:34:16.672Z,14.55
2023-01-09T05:34:48.520Z,13.90
2023-01-09T05:35:20.463Z,13.20
2023-01-09T05:35:52.307Z,12.25
2023-01-09T05:36:24.160Z,12.00
2023-01-09T05:36:56.050Z,11.50
2023-01-09T05:37:28.234Z,11.30
2023-01-09T05:38:00.309Z,10.88
2023-01-09T05:38:32.181Z,10.93
2023-01-09T05:39:05.550Z,10.40
2023-01-09T05:39:37.446Z,11.50
2023-01-09T05:40:10.252Z,10.52
2023-01-09T05:40:42.084Z,10.93
2023-01-09T05:41:13.963Z,10.93
2023-01-09T05:41:45.865Z,11.12
2023-01-09T05:42:17.726Z,9.85
2023-01-09T05:42:49.963Z,10.82
2023-01-09T05:43:21.776Z,10.70
2023-01-09T05:43:53.723Z,10.75
2023-01-09T05:44:25.688Z,11.45
2023-01-09T05:44:57.615Z,10.02
2023-01-09T05:45:29.602Z,10.43
2023-01-09T05:46:01.618Z,11.38
2023-01-09T05:46:33.708Z,11.18
2023-01-09T05:47:05.684Z,11.02
2023-01-09T05:47:37.969Z,11.38
2023-01-09T05:48:10.196Z,11.75
2023-01-09T05:48:42.177Z,12.98
2023-01-09T05:49:14.175Z,10.27
2023-01-09T05:49:46.120Z,10.40
2023-01-09T05:50:18.091Z,10.38
2023-01-09T05:50:50.040Z,10.38
2023-01-09T05:51:22.288Z,11.00
2023-01-09T05:51:54.227Z,11.73
2023-01-09T05:52:26.120Z,11.35
2023-01-09T05:52:58.040Z,10.68
2023-01-09T05:53:30.190Z,10.35
2023-01-09T05:54:02.918Z,10.35
2023-01-09T05:54:34.892Z,11.40
2023-01-09T05:55:08.003Z,11.75
2023-01-09T05:55:39.936Z,11.90
2023-01-09T05:56:12.061Z,13.43
2023-01-09T05:56:44.026Z,11.65
2023-01-09T05:57:15.948Z,11.70
2023-01-09T05:57:47.894Z,14.95
2023-01-09T05:58:19.872Z,16.08
2023-01-09T05:58:52.131Z,22.52
2023-01-09T05:59:24.022Z,19.75
2023-01-09T05:59:55.965Z,13.05
2023-01-09T06:00:28.342Z,20.77
2023-01-09T06:01:00.797Z,25.73
2023-01-09T06:01:32.840Z,28.35
2023-01-09T06:02:05.053Z,28.42
2023-01-09T06:02:37.219Z,30.25
2023-01-09T06:03:09.332Z,18.62
2023-01-09T06:03:42.095Z,16.98
2023-01-09T06:04:14.099Z,23.90
2023-01-09T06:04:46.060Z,23.98
2023-01-09T06:05:17.972Z,28.00
2023-01-09T06:05:49.890Z,26.77
2023-01-09T06:06:22.810Z,31.67
2023-01-09T06:06:54.646Z,27.35
2023-01-09T06:07:26.521Z,26.77
2023-01-09T06:07:58.404Z,22.13
2023-01-09T06:08:30.318Z,34.05
2023-01-09T06:09:03.530Z,21.30
2023-01-09T06:09:35.429Z,20.30
2023-01-09T06:10:16.469Z,18.73
2023-01-09T06:10:48.362Z,16.52
2023-01-09T06:11:20.193Z,19.62
2023-01-09T06:11:54.652Z,14.63
2023-01-09T06:12:26.496Z,19.10
2023-01-09T06:12:58.376Z,15.38
2023-01-09T06:13:30.227Z,14.35
2023-01-09T06:14:02.455Z,13.60
2023-01-09T06:14:34.406Z,16.33
2023-01-09T06:15:08.886Z,15.25
2023-01-09T06:15:41.033Z,29.98
2023-01-09T06:16:14.032Z,23.15
2023-01-09T06:16:45.998Z,16.62
2023-01-09T06:17:18.188Z,15.50
2023-01-09T06:17:50.208Z,16.02
2023-01-09T06:18:22.029Z,24.50
2023-01-09T06:18:53.892Z,25.15
2023-01-09T06:19:25.718Z,12.88
2023-01-09T06:19:57.569Z,18.20
2023-01-09T06:20:29.435Z,16.08
2023-01-09T06:21:01.290Z,17.12
2023-01-09T06:21:33.832Z,22.40
2023-01-09T06:22:05.722Z,22.23
2023-01-09T06:22:38.029Z,24.45
2023-01-09T06:23:11.222Z,17.10
2023-01-09T06:23:44.046Z,13.80
2023-01-09T06:24:15.931Z,15.70
2023-01-09T06:24:47.780Z,11.25
2023-01-09T06:25:19.685Z,17.83
2023-01-09T06:25:51.586Z,24.98
2023-01-09T06:26:24.246Z,24.05
2023-01-09T06:26:56.077Z,29.73
2023-01-09T06:27:28.012Z,27.13
2023-01-09T06:28:00.174Z,18.25
2023-01-09T06:28:32.003Z,26.83
2023-01-09T06:29:03.926Z,23.40
2023-01-09T06:29:35.836Z,30.83
2023-01-09T06:30:08.352Z,28.70
2023-01-09T06:30:40.216Z,26.10
2023-01-09T06:31:12.136Z,18.12
2023-01-09T06:31:44.068Z,17.73
2023-01-09T06:32:15.962Z,18.67
2023-01-09T06:32:49.327Z,26.08
2023-01-09T06:33:21.679Z,30.20
2023-01-09T06:33:54.144Z,25.52
2023-01-09T06:34:26.026Z,33.17
2023-01-09T06:34:57.855Z,27.00
2023-01-09T06:35:29.745Z,21.98
2023-01-09T06:36:01.810Z,22.05
2023-01-09T06:36:33.643Z,19.42
2023-01-09T06:37:05.490Z,18.37
2023-01-09T06:37:37.388Z,16.17
2023-01-09T06:38:09.209Z,14.95
2023-01-09T06:38:41.391Z,19.80
2023-01-09T06:39:14.163Z,18.65
2023-01-09T06:39:46.029Z,17.33
2023-01-09T06:40:18.660Z,16.87
2023-01-09T06:40:50.848Z,15.77
2023-01-09T06:41:22.726Z,28.85
2023-01-09T06:41:54.650Z,27.75
2023-01-09T06:42:26.491Z,25.58
2023-01-09T06:42:58.366Z,25.33
2023-01-09T06:43:30.339Z,29.02
2023-01-09T06:44:02.465Z,15.07
2023-01-09T06:44:36.541Z,12.98
2023-01-09T06:45:08.975Z,12.70
2023-01-09T06:45:42.777Z,19.48
2023-01-09T06:46:14.737Z,15.82
2023-01-09T06:46:46.615Z,21.90
2023-01-09T06:47:18.442Z,18.05
2023-01-09T06:47:50.304Z,18.25
2023-01-09T06:48:22.231Z,16.40
2023-01-09T06:48:54.049Z,15.68
2023-01-09T06:49:26.180Z,12.07
2023-01-09T06:49:58.251Z,13.05
2023-01-09T06:50:30.190Z,13.02
2023-01-09T06:51:02.280Z,14.60
2023-01-09T06:51:34.148Z,19.40
2023-01-09T06:52:07.724Z,20.08
2023-01-09T06:52:40.200Z,17.60
2023-01-09T06:53:12.216Z,16.12
2023-01-09T06:53:46.633Z,14.65
2023-01-09T06:54:19.326Z,12.40
2023-01-09T06:54:51.469Z,12.23
2023-01-09T06:55:23.381Z,11.73
2023-01-09T06:55:55.266Z,11.12
2023-01-09T06:56:27.122Z,11.90
2023-01-09T06:56:58.958Z,12.20
2023-01-09T06:57:30.824Z,11.55
2023-01-09T06:58:02.641Z,12.27
2023-01-09T06:58:34.494Z,11.57
2023-01-09T06:59:06.309Z,12.65
2023-01-09T06:59:38.154Z,14.45
2023-01-09T07:00:11.083Z,18.02
2023-01-09T07:00:43.178Z,39.45
2023-01-09T07:01:15.493Z,23.98
2023-01-09T07:01:47.767Z,17.67
2023-01-09T07:02:22.324Z,22.30
2023-01-09T07:02:54.223Z,27.33
2023-01-09T07:03:26.058Z,21.15
2023-01-09T07:03:58.001Z,20.55
2023-01-09T07:04:29.910Z,20.90
2023-01-09T07:05:01.779Z,19.62
2023-01-09T07:05:40.039Z,14.27
2023-01-09T07:06:11.981Z,15.90
2023-01-09T07:06:44.017Z,12.73
2023-01-09T07:07:16.061Z,12.63
2023-01-09T07:07:47.947Z,14.30
2023-01-09T07:08:19.821Z,12.93
2023-01-09T07:08:51.673Z,13.90
2023-01-09T07:09:23.587Z,15.93
2023-01-09T07:09:55.445Z,15.23
2023-01-09T07:10:27.325Z,13.27
2023-01-09T07:10:59.532Z,11.65
2023-01-09T07:11:31.599Z,12.98
2023-01-09T07:12:03.587Z,14.77
2023-01-09T07:12:35.481Z,14.15
2023-01-09T07:13:07.370Z,14.30
2023-01-09T07:13:39.259Z,15.25
2023-01-09T07:14:11.152Z,14.07
2023-01-09T07:14:43.232Z,13.20
2023-01-09T07:15:15.365Z,13.77
2023-01-09T07:15:47.262Z,18.80
2023-01-09T07:16:19.622Z,19.25
2023-01-09T07:16:51.452Z,19.52
2023-01-09T07:17:23.269Z,16.70
2023-01-09T07:17:55.255Z,16.45
2023-01-09T07:18:27.101Z,13.62
2023-01-09T07:18:59.414Z,12.23
2023-01-09T07:19:31.409Z,12.02
2023-01-09T07:20:03.984Z,14.10
2023-01-09T07:20:35.885Z,16.77
2023-01-09T07:21:07.806Z,15.38
2023-01-09T07:21:40.019Z,14.15
2023-01-09T07:22:11.926Z,13.45
2023-01-09T07:22:44.433Z,15.75
2023-01-09T07:23:16.565Z,14.00
2023-01-09T07:23:48.576Z,12.27
2023-01-09T07:24:20.450Z,12.23
2023-01-09T07:24:52.332Z,11.40
2023-01-09T07:25:24.234Z,14.50
2023-01-09T07:25:56.202Z,12.90
2023-01-09T07:26:28.077Z,11.43
2023-01-09T07:27:00.335Z,11.35
2023-01-09T07:27:32.140Z,11.70
2023-01-09T07:28:04.035Z,11.02
2023-01-09T07:28:35.926Z,11.68
2023-01-09T07:29:07.790Z,15.20
2023-01-09T07:29:39.629Z,16.95
2023-01-09T07:30:12.313Z,19.45